Time;durP1;ratioP1;P1;durP2;ratioP2;P2;SDS_P1;SDS_P2;PMS_P1;PMS_P2;Temp;Humidity;BMP_temperature;BMP_pressure;BME280_temperature;BME280_humidity;BME280_pressure;Samples;Min_cycle;Max_cycle;Signal;HPM_P1;HPM_P2
2022/02/18 00:01:12;;;;;;;18.73;2.85;;;;;;;6.07;73.92;95344.81;5119520;27;20077;-74
2022/02/18 00:03:38;;;;;;;21.33;3.15;;;;;;;5.99;74.24;95360.94;5106321;27;20036;-74
2022/02/18 00:06:05;;;;;;;11.10;2.72;;;;;;;6.05;73.83;95346.91;5090111;28;20055;-75
2022/02/18 00:08:31;;;;;;;15.13;2.78;;;;;;;5.96;74.06;95348.34;5091788;28;20039;-74
2022/02/18 00:10:56;;;;;;;20.52;3.33;;;;;;;5.88;74.84;95346.16;5105059;28;20115;-74
2022/02/18 00:13:23;;;;;;;12.63;2.20;;;;;;;5.87;74.77;95352.38;5090449;28;20048;-74
2022/02/18 00:15:49;;;;;;;20.17;3.28;;;;;;;5.90;74.96;95351.91;5105792;28;20496;-74
2022/02/18 00:18:14;;;;;;;16.92;3.10;;;;;;;5.84;74.87;95347.66;5110079;27;20047;-74
2022/02/18 00:20:40;;;;;;;19.65;3.00;;;;;;;5.95;74.60;95335.50;5102341;28;20506;-74
2022/02/18 00:23:07;;;;;;;13.65;2.67;;;;;;;6.10;74.15;95333.09;5112114;28;20040;-74
2022/02/18 00:25:34;;;;;;;19.95;2.97;;;;;;;6.07;74.19;95329.13;5106966;28;20112;-74
2022/02/18 00:28:01;;;;;;;16.83;2.40;;;;;;;6.01;74.91;95319.69;5109655;28;20097;-74
2022/02/18 00:30:27;;;;;;;19.20;2.60;;;;;;;5.97;76.20;95334.25;5092513;28;20044;-75
2022/02/18 00:32:53;;;;;;;15.43;3.38;;;;;;;6.03;74.99;95330.69;5091458;28;20479;-75
2022/02/18 00:35:19;;;;;;;14.50;2.55;;;;;;;5.96;75.96;95331.84;5102610;28;20051;-75
2022/02/18 00:37:52;;;;;;;12.38;2.67;;;;;;;5.99;75.68;95326.97;5106448;28;20031;-75
2022/02/18 00:40:18;;;;;;;35.55;3.22;;;;;;;6.09;75.47;95326.28;5108642;27;20048;-75
2022/02/18 00:42:44;;;;;;;16.95;2.53;;;;;;;6.03;75.79;95317.63;5093484;28;20525;-74
2022/02/18 00:45:10;;;;;;;18.77;2.25;;;;;;;5.95;76.00;95320.63;5101262;28;20123;-75
2022/02/18 00:47:36;;;;;;;18.23;2.70;;;;;;;6.08;76.02;95319.50;5090854;28;20047;-75
2022/02/18 00:50:02;;;;;;;19.63;2.97;;;;;;;6.06;75.65;95327.59;5107542;28;20043;-74
2022/02/18 00:52:28;;;;;;;17.70;2.85;;;;;;;6.05;76.31;95315.53;5106620;28;20114;-75
2022/02/18 00:54:53;;;;;;;18.23;2.60;;;;;;;6.11;76.22;95315.59;5099644;28;20466;-75
2022/02/18 00:57:19;;;;;;;28.05;3.38;;;;;;;6.12;75.87;95309.31;5105641;28;20047;-74
2022/02/18 00:59:44;;;;;;;20.48;2.95;;;;;;;6.06;76.60;95309.28;5107945;27;20039;-75
2022/02/18 01:02:10;;;;;;;16.52;3.38;;;;;;;6.16;76.36;95316.47;5088262;28;20044;-75
2022/02/18 01:04:37;;;;;;;12.75;2.80;;;;;;;6.19;75.96;95325.59;5095708;28;20036;-74
2022/02/18 01:07:03;;;;;;;18.88;3.08;;;;;;;6.00;77.01;95325.94;5089819;28;20044;-74
2022/02/18 01:09:29;;;;;;;14.93;2.53;;;;;;;5.97;77.62;95329.03;5096904;28;20051;-75
2022/02/18 01:11:55;;;;;;;15.15;2.60;;;;;;;6.13;77.25;95329.22;5092459;28;20032;-75
2022/02/18 01:14:20;;;;;;;23.60;3.15;;;;;;;6.10;76.92;95332.31;5087337;28;20117;-75
2022/02/18 01:16:46;;;;;;;12.45;3.15;;;;;;;6.14;77.01;95315.13;5114644;28;20036;-74
2022/02/18 01:19:11;;;;;;;16.15;3.17;;;;;;;6.04;77.66;95311.34;5117545;27;20394;-74
2022/02/18 01:21:37;;;;;;;19.58;3.17;;;;;;;6.05;77.00;95310.31;5111535;27;20040;-74
2022/02/18 01:24:05;;;;;;;16.10;2.97;;;;;;;6.04;77.24;95321.78;5106003;28;20490;-74
2022/02/18 01:26:32;;;;;;;23.48;3.63;;;;;;;6.07;77.36;95323.91;5091922;28;20528;-74
2022/02/18 01:28:58;;;;;;;17.50;2.53;;;;;;;6.17;76.82;95306.78;5093219;28;20063;-74
2022/02/18 01:31:25;;;;;;;19.13;3.13;;;;;;;6.06;77.16;95311.91;5095409;28;20471;-74
2022/02/18 01:33:53;;;;;;;18.33;2.83;;;;;;;6.15;77.31;95314.88;5106546;28;20096;-74
2022/02/18 01:36:19;;;;;;;15.90;2.50;;;;;;;6.00;77.38;95312.09;5094446;28;20082;-75
2022/02/18 01:38:45;;;;;;;20.65;2.80;;;;;;;5.97;77.50;95302.91;5103944;27;20089;-74
2022/02/18 01:41:11;;;;;;;21.90;2.88;;;;;;;6.06;77.41;95306.69;5117604;27;20604;-74
2022/02/18 01:43:54;;;;;;;15.10;2.85;;;;;;;6.14;77.97;95308.06;5103584;28;20043;-74
2022/02/18 01:46:21;;;;;;;17.45;2.83;;;;;;;6.11;77.68;95297.31;5091551;28;20040;-74
2022/02/18 01:48:47;;;;;;;14.60;2.50;;;;;;;6.22;77.60;95304.19;5091843;28;20040;-74
2022/02/18 01:51:12;;;;;;;16.02;2.78;;;;;;;6.19;77.25;95304.69;5091685;28;20097;-74
2022/02/18 01:53:39;;;;;;;20.70;2.70;;;;;;;6.11;77.63;95302.53;5099453;28;20123;-74
2022/02/18 01:56:04;;;;;;;20.15;2.85;;;;;;;6.05;77.87;95294.66;5093991;28;20178;-74
2022/02/18 01:58:30;;;;;;;26.38;3.03;;;;;;;6.05;78.88;95310.31;5117697;27;20542;-74
2022/02/18 02:00:57;;;;;;;23.40;3.13;;;;;;;6.02;78.96;95297.75;5115656;27;20370;-75
2022/02/18 02:03:23;;;;;;;14.93;3.10;;;;;;;6.02;78.66;95305.59;5107105;27;20074;-74
2022/02/18 02:05:51;;;;;;;19.98;3.15;;;;;;;6.10;78.57;95301.75;5091746;28;20046;-74
2022/02/18 02:08:17;;;;;;;16.60;2.75;;;;;;;6.17;78.72;95301.56;5091163;28;20043;-73
2022/02/18 02:10:44;;;;;;;19.83;2.90;;;;;;;6.22;78.22;95293.75;5105377;27;20040;-74
2022/02/18 02:13:10;;;;;;;18.63;2.95;;;;;;;6.17;78.50;95304.16;5105503;28;20114;-75
2022/02/18 02:15:36;;;;;;;17.27;3.05;;;;;;;6.10;78.38;95291.28;5100473;28;20371;-76
2022/02/18 02:18:02;;;;;;;13.65;2.70;;;;;;;6.21;78.32;95281.75;5114858;27;20039;-75
2022/02/18 02:20:29;;;;;;;22.25;3.22;;;;;;;6.24;78.32;95291.69;5120796;27;20045;-74
2022/02/18 02:22:54;;;;;;;25.17;3.00;;;;;;;6.35;77.65;95277.69;5121991;27;20040;-75
2022/02/18 02:25:20;;;;;;;15.85;2.85;;;;;;;6.33;77.50;95279.75;5098918;28;20429;-74
2022/02/18 02:27:46;;;;;;;27.33;3.10;;;;;;;6.25;78.30;95272.38;5106350;28;20039;-75
2022/02/18 02:30:13;;;;;;;16.75;2.55;;;;;;;6.22;78.79;95283.28;5100493;28;20047;-74
2022/02/18 02:32:39;;;;;;;19.33;2.65;;;;;;;6.25;79.08;95277.59;5110067;28;20504;-75
2022/02/18 02:35:05;;;;;;;22.05;3.05;;;;;;;6.33;78.79;95274.53;5107680;28;20058;-74
2022/02/18 02:37:31;;;;;;;15.18;2.97;;;;;;;6.23;79.23;95261.38;5104603;27;20035;-74
2022/02/18 02:39:56;;;;;;;19.77;3.15;;;;;;;6.34;78.94;95259.66;5112646;27;20032;-75
2022/02/18 02:42:22;;;;;;;11.40;2.50;;;;;;;6.44;78.28;95258.91;5104452;27;20044;-75
2022/02/18 02:44:48;;;;;;;17.83;2.72;;;;;;;6.45;78.14;95250.84;5096129;28;20044;-75
2022/02/18 02:47:14;;;;;;;17.33;2.72;;;;;;;6.46;78.78;95252.41;5095115;28;20048;-74
2022/02/18 02:49:39;;;;;;;23.55;3.10;;;;;;;6.47;78.47;95258.44;5104942;28;20093;-74
2022/02/18 02:52:05;;;;;;;14.52;2.60;;;;;;;6.55;77.79;95260.59;5090259;28;20071;-75
2022/02/18 02:54:30;;;;;;;18.70;2.63;;;;;;;6.55;78.01;95265.81;5105203;28;20085;-74
2022/02/18 02:56:56;;;;;;;25.70;3.40;;;;;;;6.54;78.86;95253.81;5109565;27;20084;-74
2022/02/18 02:59:23;;;;;;;22.23;3.85;;;;;;;6.64;77.10;95253.88;5119062;27;20043;-74
2022/02/18 03:01:49;;;;;;;24.10;3.28;;;;;;;6.58;77.54;95266.13;5116074;27;20113;-74
2022/02/18 03:04:15;;;;;;;23.73;3.00;;;;;;;6.64;77.90;95263.53;5102590;27;20186;-74
2022/02/18 03:06:41;;;;;;;14.73;2.28;;;;;;;6.59;77.19;95270.31;5090847;28;20086;-74
2022/02/18 03:09:10;;;;;;;20.13;2.80;;;;;;;6.55;77.62;95271.03;5090204;28;20043;-74
2022/02/18 03:11:37;;;;;;;21.02;2.70;;;;;;;6.63;76.99;95283.66;5107675;28;20058;-75
2022/02/18 03:14:04;;;;;;;29.77;3.60;;;;;;;6.56;77.19;95288.31;5098773;28;20586;-74
2022/02/18 03:16:29;;;;;;;12.23;2.78;;;;;;;6.53;77.58;95296.66;5107107;27;20089;-74
2022/02/18 03:18:55;;;;;;;14.80;2.75;;;;;;;6.74;77.56;95290.56;5108836;27;20032;-74
2022/02/18 03:21:20;;;;;;;27.27;2.83;;;;;;;6.73;78.30;95309.91;5118019;27;20054;-73
2022/02/18 03:23:49;;;;;;;26.23;3.00;;;;;;;6.57;78.25;95300.34;5104998;27;20456;-74
2022/02/18 03:26:15;;;;;;;18.73;3.60;;;;;;;6.53;79.61;95300.06;5106134;28;20481;-74
2022/02/18 03:28:42;;;;;;;21.05;2.88;;;;;;;6.50;79.27;95305.78;5110080;27;20057;-74
2022/02/18 03:31:10;;;;;;;20.50;3.60;;;;;;;6.62;79.71;95312.69;5095237;28;20047;-74
2022/02/18 03:33:40;;;;;;;23.77;2.72;;;;;;;6.67;79.15;95310.13;5103388;28;20549;-74
2022/02/18 03:36:06;;;;;;;16.75;3.13;;;;;;;6.66;79.66;95304.09;5107297;28;20040;-74
2022/02/18 03:38:33;;;;;;;28.23;3.10;;;;;;;6.71;79.46;95285.84;5104392;28;20035;-74
2022/02/18 03:40:59;;;;;;;11.88;2.72;;;;;;;6.69;79.85;95287.91;5096279;28;20043;-74
2022/02/18 03:43:25;;;;;;;23.98;4.10;;;;;;;6.61;79.87;95285.75;5103902;27;20092;-74
2022/02/18 03:45:50;;;;;;;26.55;3.17;;;;;;;6.54;80.12;95279.94;5107992;27;20040;-74
2022/02/18 03:48:16;;;;;;;20.15;3.10;;;;;;;6.70;80.05;95268.56;5117276;27;20039;-74
2022/02/18 03:50:42;;;;;;;22.77;2.90;;;;;;;6.68;79.60;95260.19;5112162;27;20485;-74
2022/02/18 03:53:07;;;;;;;26.77;3.67;;;;;;;6.69;80.24;95266.19;5102358;27;20050;-74
2022/02/18 03:55:33;;;;;;;26.02;4.07;;;;;;;6.60;81.03;95284.16;5096460;28;20035;-74
2022/02/18 03:57:58;;;;;;;17.77;3.17;;;;;;;6.60;80.64;95284.16;5108978;28;20055;-74
2022/02/18 04:00:24;;;;;;;18.73;3.63;;;;;;;6.52;80.95;95297.69;5092989;28;20078;-73
2022/02/18 04:02:50;;;;;;;14.95;3.05;;;;;;;6.68;80.19;95319.53;5102060;28;20047;-74
2022/02/18 04:05:16;;;;;;;26.25;3.33;;;;;;;6.53;80.81;95309.72;5107261;28;20039;-74
2022/02/18 04:07:41;;;;;;;18.13;2.92;;;;;;;6.62;80.53;95297.00;5099244;28;20042;-74
2022/02/18 04:10:07;;;;;;;23.27;2.65;;;;;;;6.73;79.86;95283.75;5097898;27;20040;-74
2022/02/18 04:12:33;;;;;;;16.65;4.43;;;;;;;6.68;80.50;95278.50;5116576;28;20036;-74
2022/02/18 04:14:59;;;;;;;25.25;3.45;;;;;;;6.65;79.79;95276.38;5104149;28;21381;-74
2022/02/18 04:17:27;;;;;;;25.83;3.00;;;;;;;6.68;79.11;95278.50;5089349;28;20412;-74
2022/02/18 04:19:53;;;;;;;18.77;3.13;;;;;;;6.61;80.27;95275.28;5092401;28;20043;-74
2022/02/18 04:22:19;;;;;;;17.98;2.60;;;;;;;6.74;79.61;95266.25;5100258;28;20071;-74
2022/02/18 04:24:44;;;;;;;21.25;3.40;;;;;;;6.56;80.38;95276.03;5106126;28;20478;-74
2022/02/18 04:27:10;;;;;;;16.75;2.78;;;;;;;6.69;79.86;95274.03;5103816;28;20032;-76
2022/02/18 04:29:35;;;;;;;23.90;2.95;;;;;;;6.73;79.12;95268.06;5115834;28;20047;-74
2022/02/18 04:32:01;;;;;;;21.05;3.40;;;;;;;6.64;79.40;95259.09;5114645;28;20051;-74
2022/02/18 04:34:27;;;;;;;20.63;3.10;;;;;;;6.61;79.42;95258.81;5109718;28;20126;-74
2022/02/18 04:36:52;;;;;;;18.58;2.83;;;;;;;6.59;79.36;95256.44;5100293;28;20062;-74
2022/02/18 04:39:17;;;;;;;16.95;2.88;;;;;;;6.61;79.20;95262.22;5100846;28;20068;-74
2022/02/18 04:41:43;;;;;;;14.48;2.47;;;;;;;6.55;79.26;95261.38;5103507;28;20044;-74
2022/02/18 04:44:09;;;;;;;22.10;3.53;;;;;;;6.54;79.90;95259.03;5089395;28;20516;-74
2022/02/18 04:46:35;;;;;;;13.55;2.55;;;;;;;6.59;79.40;95251.22;5088597;28;20126;-75
2022/02/18 04:49:00;;;;;;;25.67;3.28;;;;;;;6.57;79.18;95248.06;5107827;28;20061;-74
2022/02/18 04:51:26;;;;;;;15.93;2.55;;;;;;;6.61;79.05;95253.56;5095339;28;20491;-74
2022/02/18 04:53:51;;;;;;;23.08;2.90;;;;;;;6.61;79.55;95243.91;5114146;27;20074;-74
2022/02/18 04:56:17;;;;;;;17.30;3.30;;;;;;;6.65;79.89;95234.53;5096048;28;20036;-74
2022/02/18 04:58:43;;;;;;;20.85;2.83;;;;;;;6.65;78.87;95239.78;5099155;28;20440;-74
2022/02/18 05:01:12;;;;;;;19.38;2.90;;;;;;;6.69;79.29;95243.44;5092249;28;20287;-74
2022/02/18 05:03:38;;;;;;;12.10;2.55;;;;;;;6.67;79.75;95255.97;5092517;28;20482;-74
2022/02/18 05:06:05;;;;;;;22.45;3.08;;;;;;;6.55;80.54;95242.28;5096452;28;20043;-74
2022/02/18 05:08:31;;;;;;;18.08;3.13;;;;;;;6.64;79.71;95232.97;5106441;28;20040;-74
2022/02/18 05:11:00;;;;;;;18.05;2.75;;;;;;;6.48;80.55;95233.88;5109360;27;20386;-74
2022/02/18 05:13:25;;;;;;;18.25;3.03;;;;;;;6.46;80.65;95235.94;5123571;27;20115;-74
2022/02/18 05:15:51;;;;;;;21.65;2.75;;;;;;;6.56;80.00;95239.41;5115398;27;20051;-74
2022/02/18 05:18:17;;;;;;;30.08;3.15;;;;;;;6.59;80.11;95240.75;5122397;27;20036;-74
2022/02/18 05:20:42;;;;;;;20.23;2.97;;;;;;;6.51;80.34;95225.53;5095681;28;20044;-74
2022/02/18 05:23:08;;;;;;;17.83;2.78;;;;;;;6.61;80.06;95223.00;5106670;28;20505;-74
2022/02/18 05:25:34;;;;;;;23.33;3.10;;;;;;;6.55;80.38;95218.75;5093897;28;20050;-75
2022/02/18 05:28:04;;;;;;;23.05;3.70;;;;;;;6.45;80.80;95224.72;5111803;28;20043;-74
2022/02/18 05:30:34;;;;;;;16.40;2.83;;;;;;;6.46;80.44;95221.03;5102221;27;20504;-74
2022/02/18 05:33:01;;;;;;;13.25;2.72;;;;;;;6.50;80.93;95226.56;5109719;27;20036;-74
2022/02/18 05:35:27;;;;;;;22.02;3.63;;;;;;;6.29;81.35;95221.16;5121872;27;20047;-74
2022/02/18 05:37:52;;;;;;;21.75;3.20;;;;;;;6.20;82.38;95218.22;5099750;27;20087;-74
2022/02/18 05:40:19;;;;;;;20.10;2.78;;;;;;;6.19;82.18;95213.25;5091759;28;20052;-75
2022/02/18 05:42:44;;;;;;;20.33;3.05;;;;;;;6.25;81.94;95220.13;5092141;28;20044;-75
2022/02/18 05:45:10;;;;;;;16.52;2.55;;;;;;;6.31;81.87;95218.34;5098678;28;20059;-74
2022/02/18 05:47:36;;;;;;;18.77;2.90;;;;;;;6.19;81.74;95219.28;5101843;28;20047;-74
2022/02/18 05:50:04;;;;;;;16.67;2.80;;;;;;;6.13;82.75;95206.41;5108360;27;20119;-74
2022/02/18 05:52:29;;;;;;;25.00;3.08;;;;;;;6.11;82.70;95208.50;5114294;27;20147;-74
2022/02/18 05:54:55;;;;;;;22.15;2.90;;;;;;;5.98;83.31;95205.25;5114005;27;20092;-74
2022/02/18 05:57:21;;;;;;;22.38;2.95;;;;;;;6.06;82.94;95199.56;5103595;27;20066;-75
2022/02/18 05:59:46;;;;;;;20.42;3.03;;;;;;;5.98;83.48;95200.00;5112972;27;20043;-74
2022/02/18 06:02:12;;;;;;;19.63;3.13;;;;;;;5.97;83.16;95206.25;5120037;27;20039;-74
2022/02/18 06:04:37;;;;;;;19.83;2.65;;;;;;;5.78;84.55;95205.81;5107600;27;20040;-75
2022/02/18 06:07:03;;;;;;;18.38;3.50;;;;;;;5.99;83.73;95204.22;5105913;28;20126;-74
2022/02/18 06:09:28;;;;;;;20.60;2.67;;;;;;;6.01;83.70;95204.75;5116526;27;20059;-74
2022/02/18 06:11:55;;;;;;;16.70;2.38;;;;;;;6.03;83.54;95201.88;5105456;27;20054;-74
2022/02/18 06:14:21;;;;;;;20.27;2.95;;;;;;;6.11;83.39;95204.03;5100209;28;20036;-75
2022/02/18 06:16:46;;;;;;;20.42;3.33;;;;;;;6.10;83.62;95202.47;5098608;28;20394;-75
2022/02/18 06:19:12;;;;;;;19.55;2.72;;;;;;;6.23;82.78;95201.25;5101343;28;20527;-74
2022/02/18 06:21:40;;;;;;;15.38;2.53;;;;;;;6.24;82.90;95200.22;5103606;27;20071;-74
2022/02/18 06:24:10;;;;;;;24.77;3.40;;;;;;;6.27;82.31;95202.34;5110420;27;20035;-75
2022/02/18 06:26:36;;;;;;;24.50;2.97;;;;;;;6.12;83.59;95199.59;5096652;28;20105;-74
2022/02/18 06:29:03;;;;;;;18.95;2.72;;;;;;;6.02;84.55;95206.31;5092548;28;20036;-72
2022/02/18 06:31:29;;;;;;;17.27;2.90;;;;;;;5.95;84.77;95205.72;5108233;27;20073;-73
2022/02/18 06:33:55;;;;;;;21.60;2.92;;;;;;;5.95;85.12;95200.47;5103017;28;20032;-72
2022/02/18 06:36:20;;;;;;;17.33;2.65;;;;;;;5.79;85.63;95202.16;5099430;28;20044;-73
2022/02/18 06:38:46;;;;;;;21.13;3.15;;;;;;;5.68;87.28;95211.69;5100862;28;20474;-74
2022/02/18 06:41:12;;;;;;;16.42;3.40;;;;;;;5.66;86.91;95213.78;5096374;28;20129;-74
2022/02/18 06:43:38;;;;;;;20.75;2.60;;;;;;;5.57;87.43;95210.00;5097636;27;20048;-75
2022/02/18 06:46:04;;;;;;;24.63;3.97;;;;;;;5.49;89.24;95202.63;5104290;28;20035;-74
2022/02/18 06:48:30;;;;;;;22.20;2.88;;;;;;;5.57;88.27;95202.19;5097380;28;20484;-75
2022/02/18 06:50:55;;;;;;;16.60;3.28;;;;;;;5.80;87.53;95192.50;5105615;28;20110;-76
2022/02/18 06:53:21;;;;;;;24.15;4.55;;;;;;;5.85;86.81;95189.94;5105058;27;20032;-74
2022/02/18 06:55:47;;;;;;;21.83;3.38;;;;;;;5.79;87.58;95180.47;5091598;28;20550;-73
2022/02/18 06:58:12;;;;;;;21.88;3.30;;;;;;;5.86;86.49;95165.38;5104554;28;20088;-76
2022/02/18 07:00:38;;;;;;;27.08;3.45;;;;;;;5.91;86.25;95162.81;5105034;28;20113;-74
2022/02/18 07:03:04;;;;;;;26.63;3.83;;;;;;;5.64;88.41;95166.22;5096296;27;20044;-74
2022/02/18 07:05:30;;;;;;;18.13;3.45;;;;;;;5.98;85.83;95152.22;5094794;27;20559;-75
2022/02/18 07:07:56;;;;;;;19.02;2.50;;;;;;;6.25;84.52;95152.16;5091558;28;20086;-75
2022/02/18 07:10:21;;;;;;;16.65;2.90;;;;;;;6.41;83.62;95148.63;5096681;28;20043;-76
2022/02/18 07:12:47;;;;;;;16.70;2.70;;;;;;;6.41;83.75;95151.22;5102183;28;20040;-76
2022/02/18 07:15:12;;;;;;;16.17;3.53;;;;;;;6.56;82.07;95147.13;5090646;28;20489;-76
2022/02/18 07:17:38;;;;;;;19.77;3.15;;;;;;;6.59;81.70;95146.63;5090877;28;20044;-75
2022/02/18 07:20:08;;;;;;;19.60;3.17;;;;;;;6.39;83.16;95148.09;5109580;28;20061;-76
2022/02/18 07:22:36;;;;;;;21.83;2.60;;;;;;;6.46;82.17;95147.06;5102169;28;20749;-75
2022/02/18 07:25:03;;;;;;;13.05;2.70;;;;;;;6.40;83.06;95143.63;5098988;28;20067;-75
2022/02/18 07:27:28;;;;;;;29.10;3.45;;;;;;;6.29;84.94;95137.53;5097647;28;20562;-76
2022/02/18 07:29:54;;;;;;;17.88;2.85;;;;;;;6.47;82.50;95140.81;5104352;28;20043;-76
2022/02/18 07:32:24;;;;;;;12.27;2.30;;;;;;;6.59;82.31;95130.94;5111084;27;20118;-76
2022/02/18 07:34:50;;;;;;;22.17;3.40;;;;;;;6.74;81.75;95128.41;5093504;28;20052;-77
2022/02/18 07:37:15;;;;;;;18.80;3.58;;;;;;;6.74;81.83;95133.66;5108118;28;20039;-75
2022/02/18 07:39:41;;;;;;;14.43;2.72;;;;;;;6.87;80.77;95135.03;5097076;28;20051;-77
2022/02/18 07:42:07;;;;;;;19.98;2.88;;;;;;;7.01;80.79;95132.72;5091123;28;20036;-77
2022/02/18 07:44:33;;;;;;;18.45;2.70;;;;;;;7.06;79.80;95124.88;5097658;27;20096;-77
2022/02/18 07:46:59;;;;;;;15.55;2.92;;;;;;;7.13;79.77;95122.03;5090976;28;20051;-75
2022/02/18 07:49:25;;;;;;;15.55;2.40;;;;;;;7.15;79.27;95116.56;5102304;28;20043;-76
2022/02/18 07:51:50;;;;;;;21.65;3.63;;;;;;;7.16;79.31;95118.13;5106368;27;20040;-75
2022/02/18 07:54:16;;;;;;;10.45;2.30;;;;;;;7.20;78.97;95119.19;5101986;27;20032;-75
2022/02/18 07:56:43;;;;;;;13.90;2.70;;;;;;;7.23;78.93;95113.44;5107259;28;20447;-75
2022/02/18 07:59:09;;;;;;;15.52;2.90;;;;;;;7.18;79.78;95110.81;5103983;27;20330;-75
2022/02/18 08:01:35;;;;;;;12.77;2.58;;;;;;;7.29;78.81;95104.56;5090610;28;20051;-75
2022/02/18 08:04:00;;;;;;;17.80;3.35;;;;;;;7.28;78.01;95095.13;5092984;28;20044;-75
2022/02/18 08:06:26;;;;;;;17.48;3.00;;;;;;;7.24;79.61;95091.44;5104106;28;20036;-75
2022/02/18 08:08:53;;;;;;;12.93;3.22;;;;;;;7.23;80.36;95089.88;5102977;28;20047;-75
2022/02/18 08:11:19;;;;;;;19.25;3.25;;;;;;;7.27;79.88;95088.34;5090453;28;20048;-75
2022/02/18 08:13:45;;;;;;;20.88;2.85;;;;;;;7.36;79.88;95084.16;5094237;28;20032;-75
2022/02/18 08:16:11;;;;;;;14.63;2.75;;;;;;;7.39;78.45;95085.47;5104913;28;20042;-77
2022/02/18 08:18:39;;;;;;;21.52;3.03;;;;;;;7.31;79.26;95076.28;5099795;28;20056;-75
2022/02/18 08:21:05;;;;;;;18.70;3.00;;;;;;;7.32;80.14;95070.00;5091873;28;20048;-75
2022/02/18 08:23:30;;;;;;;19.25;3.17;;;;;;;7.39;79.85;95062.69;5090466;28;20036;-75
2022/02/18 08:25:56;;;;;;;26.08;3.30;;;;;;;7.40;79.65;95061.66;5087718;28;20115;-75
2022/02/18 08:28:21;;;;;;;11.63;2.63;;;;;;;7.45;78.92;95064.25;5106410;28;20482;-75
2022/02/18 08:30:47;;;;;;;17.95;2.67;;;;;;;7.54;78.09;95061.13;5115269;27;20404;-74
2022/02/18 08:33:13;;;;;;;20.48;2.85;;;;;;;7.52;79.97;95052.78;5113505;27;20073;-74
2022/02/18 08:35:39;;;;;;;18.77;3.67;;;;;;;7.55;79.76;95047.00;5118803;27;20500;-75
2022/02/18 08:38:06;;;;;;;14.10;4.10;;;;;;;7.50;80.47;95033.91;5102660;28;20051;-75
2022/02/18 08:40:33;;;;;;;16.42;2.90;;;;;;;7.52;81.39;95027.34;5095275;28;20157;-75
2022/02/18 08:43:01;;;;;;;12.63;2.85;;;;;;;7.54;82.58;95029.72;5110028;28;20043;-75
2022/02/18 08:45:27;;;;;;;12.23;2.75;;;;;;;7.53;83.80;95017.66;5106062;28;20032;-74
2022/02/18 08:47:53;;;;;;;10.02;2.58;;;;;;;7.46;83.73;95012.69;5093553;28;20039;-74
2022/02/18 08:50:18;;;;;;;15.32;3.08;;;;;;;7.49;83.86;95006.94;5104549;27;20044;-75
2022/02/18 08:52:44;;;;;;;26.00;3.65;;;;;;;7.37;85.96;94999.34;5107528;27;20114;-75
2022/02/18 08:55:12;;;;;;;21.50;3.33;;;;;;;7.32;86.46;95012.41;5112741;28;20504;-74
2022/02/18 08:57:39;;;;;;;12.63;2.60;;;;;;;7.34;84.35;95020.81;5118479;27;20114;-74
2022/02/18 09:00:06;;;;;;;18.85;3.05;;;;;;;7.31;85.08;95000.38;5108767;27;20047;-75
2022/02/18 09:02:35;;;;;;;15.48;2.75;;;;;;;7.22;84.68;95007.97;5104445;28;20108;-76
2022/02/18 09:05:01;;;;;;;13.77;3.42;;;;;;;7.22;86.12;95004.56;5108079;28;20039;-77
2022/02/18 09:07:27;;;;;;;17.40;3.13;;;;;;;7.23;85.32;95004.28;5097775;27;20063;-77
2022/02/18 09:09:54;;;;;;;15.90;3.75;;;;;;;7.25;85.29;94990.94;5106420;27;20039;-76
2022/02/18 09:12:20;;;;;;;12.25;3.78;;;;;;;7.26;86.17;94992.53;5118377;27;20049;-76
2022/02/18 09:14:46;;;;;;;11.43;3.08;;;;;;;7.25;85.51;94980.47;5109214;28;20118;-76
2022/02/18 09:17:11;;;;;;;14.57;3.00;;;;;;;7.36;85.82;94976.81;5092951;28;20048;-77
2022/02/18 09:19:37;;;;;;;16.08;3.15;;;;;;;7.44;86.96;94973.69;5104890;28;20031;-76
2022/02/18 09:22:03;;;;;;;18.58;3.28;;;;;;;7.52;86.22;94974.22;5111835;28;20047;-76
2022/02/18 09:24:28;;;;;;;24.50;3.40;;;;;;;7.58;84.81;94968.69;5118048;27;20055;-76
2022/02/18 09:26:54;;;;;;;18.17;3.13;;;;;;;7.67;83.95;94966.34;5112154;28;20039;-76
2022/02/18 09:29:20;;;;;;;13.18;2.67;;;;;;;7.71;84.78;94946.41;5120902;27;20039;-76
2022/02/18 09:31:46;;;;;;;16.80;2.63;;;;;;;7.78;85.18;94941.69;5092962;27;20044;-77
2022/02/18 09:34:12;;;;;;;18.25;3.90;;;;;;;7.88;83.66;94940.13;5095547;28;20043;-77
2022/02/18 09:36:39;;;;;;;16.15;3.17;;;;;;;7.97;84.61;94933.28;5115856;28;20052;-76
2022/02/18 09:39:06;;;;;;;14.20;2.92;;;;;;;7.95;82.69;94917.03;5117887;28;20064;-81
2022/02/18 09:41:34;;;;;;;8.65;2.65;;;;;;;8.02;82.09;94909.69;5109613;28;20501;-80
2022/02/18 09:44:01;;;;;;;14.15;3.10;;;;;;;8.11;81.90;94913.31;5105925;27;20036;-80
2022/02/18 09:46:30;;;;;;;9.10;2.67;;;;;;;8.21;79.23;94917.72;5099442;27;20115;-78
2022/02/18 09:48:55;;;;;;;18.33;2.95;;;;;;;8.25;79.18;94912.75;5104637;27;20036;-76
2022/02/18 09:51:21;;;;;;;7.95;2.28;;;;;;;8.30;77.95;94904.84;5093877;28;20546;-76
2022/02/18 09:53:48;;;;;;;10.00;2.33;;;;;;;8.40;79.04;94899.56;5101710;28;20059;-74
2022/02/18 09:56:18;;;;;;;12.00;2.65;;;;;;;8.45;78.19;94896.94;5096733;27;20050;-76
2022/02/18 09:58:44;;;;;;;13.05;2.58;;;;;;;8.52;77.70;94886.16;5096126;28;20035;-74
2022/02/18 10:01:12;;;;;;;10.05;2.47;;;;;;;8.60;77.79;94876.94;5105002;27;20545;-76
2022/02/18 10:03:39;;;;;;;16.80;5.28;;;;;;;8.69;77.74;94866.66;5104839;27;20036;-75
2022/02/18 10:06:04;;;;;;;11.70;3.38;;;;;;;8.78;77.56;94868.44;5116560;27;20561;-76
2022/02/18 10:08:31;;;;;;;14.25;2.70;;;;;;;8.86;75.90;94868.91;5104090;27;20032;-74
2022/02/18 10:11:05;;;;;;;12.23;2.58;;;;;;;8.91;75.17;94867.03;5103232;27;20032;-76
2022/02/18 10:13:37;;;;;;;12.13;3.22;;;;;;;8.94;74.64;94865.69;5099045;28;20040;-76
2022/02/18 10:16:04;;;;;;;10.40;2.72;;;;;;;8.98;75.95;94845.72;5098681;28;20036;-76
2022/02/18 10:18:47;;;;;;;15.45;2.50;;;;;;;9.04;74.23;94849.88;5103585;27;20524;-78
2022/02/18 10:21:21;;;;;;;13.52;2.72;;;;;;;9.21;73.79;94853.91;5118926;27;20044;-76
2022/02/18 10:23:46;;;;;;;11.20;3.08;;;;;;;9.18;74.54;94840.28;5104324;28;20054;-76
2022/02/18 10:26:12;;;;;;;10.52;2.33;;;;;;;9.33;72.60;94830.72;5111096;28;20130;-76
2022/02/18 10:28:38;;;;;;;10.20;2.20;;;;;;;9.28;73.30;94833.38;5093178;28;20044;-77
2022/02/18 10:31:05;;;;;;;10.68;2.45;;;;;;;9.38;70.76;94835.13;5091052;28;20044;-77
2022/02/18 10:33:35;;;;;;;8.38;2.22;;;;;;;9.47;70.46;94836.88;5108111;27;20040;-77
2022/02/18 10:36:03;;;;;;;9.18;2.40;;;;;;;9.48;71.83;94827.94;5121911;27;20053;-77
2022/02/18 10:38:38;;;;;;;13.02;2.55;;;;;;;9.48;71.75;94822.69;5103552;27;20046;-76
2022/02/18 10:41:19;;;;;;;7.45;2.28;;;;;;;9.68;68.76;94818.25;5103068;28;20046;-76
2022/02/18 10:43:45;;;;;;;7.07;2.20;;;;;;;9.76;70.31;94812.38;5103048;28;20454;-76
2022/02/18 10:46:11;;;;;;;7.18;1.90;;;;;;;9.76;68.03;94801.88;5096650;28;20063;-76
2022/02/18 10:48:54;;;;;;;10.52;2.55;;;;;;;9.84;68.28;94803.88;5097368;27;20470;-75
2022/02/18 10:51:27;;;;;;;7.22;1.98;;;;;;;9.87;68.32;94790.19;5110542;27;20036;-78
2022/02/18 10:53:53;;;;;;;8.63;2.03;;;;;;;9.89;66.39;94785.41;5093492;28;20032;-77
2022/02/18 10:56:20;;;;;;;7.88;2.17;;;;;;;9.88;68.36;94773.34;5101781;28;20050;-76
2022/02/18 10:58:48;;;;;;;11.65;2.83;;;;;;;10.12;67.43;94771.75;5109034;28;20035;-76
2022/02/18 11:01:15;;;;;;;11.95;2.50;;;;;;;10.16;66.20;94772.75;5102203;27;20036;-75
2022/02/18 11:03:43;;;;;;;9.20;2.20;;;;;;;10.17;64.79;94754.03;5100160;28;20099;-75
2022/02/18 11:06:13;;;;;;;11.20;2.53;;;;;;;10.13;64.87;94747.78;5099592;28;20074;-75
2022/02/18 11:08:49;;;;;;;6.85;2.22;;;;;;;10.15;64.15;94740.38;5101998;27;20063;-76
2022/02/18 11:11:16;;;;;;;8.15;2.30;;;;;;;10.22;64.59;94746.06;5104881;27;20047;-75
2022/02/18 11:13:44;;;;;;;10.55;2.50;;;;;;;10.28;65.01;94738.13;5103076;28;20036;-75
2022/02/18 11:16:14;;;;;;;5.68;2.13;;;;;;;10.27;64.25;94726.03;5105700;28;20050;-76
2022/02/18 11:18:41;;;;;;;7.63;2.00;;;;;;;10.32;63.68;94728.59;5097185;28;20043;-74
2022/02/18 11:21:09;;;;;;;9.10;1.92;;;;;;;10.28;64.02;94725.75;5106184;28;20142;-76
2022/02/18 11:23:35;;;;;;;11.10;2.40;;;;;;;10.26;64.70;94708.69;5108945;28;20044;-77
2022/02/18 11:26:01;;;;;;;11.40;2.22;;;;;;;10.28;64.13;94709.19;5101142;28;20717;-77
2022/02/18 11:28:28;;;;;;;8.75;1.95;;;;;;;10.38;64.01;94712.47;5095692;28;20042;-77
2022/02/18 11:30:56;;;;;;;9.38;2.17;;;;;;;10.36;64.46;94698.81;5100212;27;20057;-76